createdAt,value
2022-10-30T00:01:51.640Z,14.51
2022-10-30T00:04:19.769Z,14.30
2022-10-30T00:06:49.968Z,14.19
2022-10-30T00:09:18.053Z,14.04
2022-10-30T00:11:46.043Z,14.21
2022-10-30T00:14:14.054Z,13.92
2022-10-30T00:16:42.033Z,14.03
2022-10-30T00:19:10.026Z,13.78
2022-10-30T00:21:38.067Z,13.73
2022-10-30T00:24:08.831Z,13.73
2022-10-30T00:26:36.943Z,13.81
2022-10-30T00:29:04.926Z,13.79
2022-10-30T00:31:32.933Z,13.74
2022-10-30T00:34:02.206Z,13.82
2022-10-30T00:36:30.168Z,13.78
2022-10-30T00:38:58.189Z,13.83
2022-10-30T00:41:27.583Z,13.82
2022-10-30T00:43:56.593Z,13.67
2022-10-30T00:46:29.194Z,13.58
2022-10-30T00:49:00.636Z,13.69
2022-10-30T00:51:30.071Z,13.94
2022-10-30T00:54:01.860Z,13.87
2022-10-30T00:56:32.219Z,13.89
2022-10-30T00:59:02.940Z,13.58
2022-10-30T01:01:35.041Z,13.84
2022-10-30T01:04:04.628Z,14.05
2022-10-30T01:06:34.990Z,14.18
2022-10-30T01:09:04.655Z,14.20
2022-10-30T01:11:34.202Z,14.23
2022-10-30T01:14:07.119Z,14.23
2022-10-30T01:17:01.976Z,14.22
2022-10-30T01:19:39.148Z,14.60
2022-10-30T01:22:31.606Z,14.14
2022-10-30T01:25:10.667Z,13.95
2022-10-30T01:27:50.907Z,14.31
2022-10-30T01:30:29.144Z,14.34
2022-10-30T01:33:12.904Z,14.39
2022-10-30T01:35:47.093Z,14.68
2022-10-30T01:38:20.646Z,14.47
2022-10-30T01:40:52.180Z,14.30
2022-10-30T01:43:21.638Z,14.51
2022-10-30T01:46:13.962Z,14.65
2022-10-30T01:48:57.315Z,14.96
2022-10-30T01:51:41.526Z,14.53
2022-10-30T01:54:22.074Z,14.40
2022-10-30T01:57:00.938Z,14.81
2022-10-30T01:59:35.699Z,14.42
2022-10-30T02:02:03.889Z,14.10
2022-10-30T02:04:33.096Z,14.31
2022-10-30T02:07:01.179Z,14.05
2022-10-30T02:09:29.378Z,14.48
2022-10-30T02:11:57.718Z,14.01
2022-10-30T02:14:30.192Z,13.98
2022-10-30T02:17:03.277Z,14.00
2022-10-30T02:19:31.350Z,14.06
2022-10-30T02:22:00.885Z,14.15
2022-10-30T02:24:30.219Z,14.13
2022-10-30T02:26:58.383Z,14.68
2022-10-30T02:29:26.410Z,13.97
2022-10-30T02:31:54.398Z,13.66
2022-10-30T02:34:22.561Z,13.55
2022-10-30T02:36:50.537Z,13.86
2022-10-30T02:39:21.380Z,13.58
2022-10-30T02:41:49.935Z,13.27
2022-10-30T02:44:17.937Z,13.68
2022-10-30T02:46:47.985Z,13.53
2022-10-30T02:49:16.132Z,13.06
2022-10-30T02:51:44.186Z,13.54
2022-10-30T02:54:14.012Z,13.16
2022-10-30T02:56:43.783Z,13.20
2022-10-30T02:59:11.990Z,12.97
2022-10-30T03:01:40.208Z,12.65
2022-10-30T03:04:08.449Z,12.94
2022-10-30T03:06:36.443Z,13.07
2022-10-30T03:09:04.542Z,13.18
2022-10-30T03:11:34.766Z,13.03
2022-10-30T03:14:04.175Z,12.90
2022-10-30T03:16:33.654Z,13.31
2022-10-30T03:19:01.701Z,13.17
2022-10-30T03:21:30.593Z,13.06
2022-10-30T03:23:58.692Z,13.07
2022-10-30T03:26:27.248Z,12.97
2022-10-30T03:29:00.416Z,13.01
2022-10-30T03:31:32.758Z,13.03
2022-10-30T03:34:17.464Z,12.91
2022-10-30T03:36:45.469Z,13.08
2022-10-30T03:39:14.256Z,13.03
2022-10-30T03:41:44.700Z,12.96
2022-10-30T03:44:13.618Z,12.89
2022-10-30T03:46:43.045Z,13.05
2022-10-30T03:49:40.398Z,13.17
2022-10-30T03:52:12.296Z,12.88
2022-10-30T03:54:40.261Z,13.07
2022-10-30T03:57:09.608Z,13.14
2022-10-30T03:59:45.664Z,12.67
2022-10-30T04:02:40.885Z,12.94
2022-10-30T04:05:10.155Z,12.69
2022-10-30T04:07:38.115Z,12.70
2022-10-30T04:10:06.947Z,12.84
2022-10-30T04:12:35.526Z,12.50
2022-10-30T04:15:03.689Z,12.63
2022-10-30T04:17:31.612Z,12.47
2022-10-30T04:20:03.853Z,12.34
2022-10-30T04:22:33.216Z,12.35
2022-10-30T04:25:01.259Z,12.41
2022-10-30T04:27:31.921Z,12.70
2022-10-30T04:29:59.945Z,12.43
2022-10-30T04:32:28.439Z,12.38
2022-10-30T04:34:56.607Z,12.24
2022-10-30T04:37:27.277Z,12.20
2022-10-30T04:39:55.271Z,12.11
2022-10-30T04:42:27.283Z,12.24
2022-10-30T04:44:55.288Z,12.16
2022-10-30T04:47:23.284Z,12.08
2022-10-30T04:49:51.262Z,12.80
2022-10-30T04:52:19.317Z,12.66
2022-10-30T04:54:48.711Z,12.68
2022-10-30T04:57:16.981Z,12.48
2022-10-30T04:59:45.177Z,12.26
2022-10-30T05:02:13.387Z,12.50
2022-10-30T05:04:41.651Z,12.03
2022-10-30T05:07:09.597Z,12.52
2022-10-30T05:09:37.605Z,12.81
2022-10-30T05:12:07.509Z,12.18
2022-10-30T05:14:43.236Z,12.27
2022-10-30T05:17:11.379Z,12.05
2022-10-30T05:19:39.330Z,11.93
2022-10-30T05:22:07.575Z,12.06
2022-10-30T05:24:36.710Z,11.98
2022-10-30T05:27:06.204Z,11.93
2022-10-30T05:29:34.899Z,12.41
2022-10-30T05:32:02.910Z,12.35
2022-10-30T05:34:42.528Z,12.32
2022-10-30T05:37:11.876Z,12.44
2022-10-30T05:39:39.856Z,12.45
2022-10-30T05:42:16.614Z,12.29
2022-10-30T05:45:05.112Z,12.34
2022-10-30T05:47:36.518Z,11.79
2022-10-30T05:50:05.027Z,12.07
2022-10-30T05:52:33.029Z,11.75
2022-10-30T05:55:01.585Z,11.68
2022-10-30T05:58:01.239Z,12.04
2022-10-30T06:00:31.797Z,12.14
2022-10-30T06:03:04.043Z,12.01
2022-10-30T06:05:35.031Z,11.86
2022-10-30T06:08:03.254Z,12.02
2022-10-30T06:10:31.563Z,11.94
2022-10-30T06:13:08.610Z,11.96
2022-10-30T06:15:43.851Z,12.07
2022-10-30T06:18:12.001Z,11.74
2022-10-30T06:20:45.399Z,11.91
2022-10-30T06:23:31.774Z,12.02
2022-10-30T06:26:05.254Z,11.94
2022-10-30T06:28:52.380Z,11.96
2022-10-30T06:33:49.204Z,12.12
2022-10-30T06:36:17.596Z,12.04
2022-10-30T06:38:45.991Z,12.21
2022-10-30T06:41:17.478Z,12.50
2022-10-30T06:44:01.284Z,11.94
2022-10-30T06:46:33.757Z,12.36
2022-10-30T06:49:02.482Z,12.37
2022-10-30T06:51:33.058Z,12.48
2022-10-30T06:54:01.716Z,12.81
2022-10-30T06:56:52.756Z,12.75
2022-10-30T06:59:44.932Z,12.82
2022-10-30T07:02:31.652Z,13.09
2022-10-30T07:05:04.872Z,13.20
2022-10-30T07:07:33.153Z,13.12
2022-10-30T07:10:01.822Z,13.58
2022-10-30T07:12:54.608Z,13.47
2022-10-30T07:15:39.891Z,13.13
2022-10-30T07:18:23.568Z,13.76
2022-10-30T07:20:56.268Z,14.03
2022-10-30T07:23:25.208Z,13.75
2022-10-30T07:26:02.479Z,14.15
2022-10-30T07:28:36.801Z,13.82
2022-10-30T07:31:24.245Z,14.03
2022-10-30T07:34:32.646Z,14.39
2022-10-30T07:37:24.730Z,14.22
2022-10-30T07:40:22.035Z,14.13
2022-10-30T07:43:01.116Z,14.13
2022-10-30T07:46:01.551Z,14.99
2022-10-30T07:48:57.503Z,14.88
2022-10-30T07:51:30.521Z,14.77
2022-10-30T07:53:59.056Z,14.92
2022-10-30T07:56:27.120Z,15.38
2022-10-30T07:58:55.250Z,14.64
2022-10-30T08:01:32.176Z,14.87
2022-10-30T08:04:14.124Z,15.18
2022-10-30T08:06:42.210Z,15.20
2022-10-30T08:09:10.511Z,15.19
2022-10-30T08:11:38.518Z,15.21
2022-10-30T08:14:06.852Z,15.25
2022-10-30T08:16:34.820Z,15.18
2022-10-30T08:19:04.399Z,15.65
2022-10-30T08:21:34.346Z,15.23
2022-10-30T08:24:12.319Z,15.88
2022-10-30T08:26:43.110Z,16.40
2022-10-30T08:29:12.554Z,16.73
2022-10-30T08:31:41.186Z,16.77
2022-10-30T08:34:26.687Z,15.87
2022-10-30T08:36:57.661Z,16.19
2022-10-30T08:39:25.934Z,16.09
2022-10-30T08:42:32.186Z,16.41
2022-10-30T08:45:02.724Z,16.17
2022-10-30T08:47:59.503Z,16.64
2022-10-30T08:50:29.457Z,16.97
2022-10-30T08:53:04.011Z,16.39
2022-10-30T08:55:33.297Z,16.77
2022-10-30T08:58:04.051Z,16.81
2022-10-30T09:00:32.667Z,17.63
2022-10-30T09:03:12.383Z,17.15
2022-10-30T09:05:59.737Z,17.47
2022-10-30T09:08:52.302Z,17.65
2022-10-30T09:11:39.088Z,17.91
2022-10-30T09:14:07.064Z,18.08
2022-10-30T09:16:35.956Z,18.66
2022-10-30T09:19:04.101Z,19.01
2022-10-30T09:21:32.205Z,19.30
2022-10-30T09:24:02.603Z,19.00
2022-10-30T09:26:37.003Z,18.61
2022-10-30T09:29:23.707Z,18.81
2022-10-30T09:32:08.800Z,18.19
2022-10-30T09:34:42.260Z,18.51
2022-10-30T09:37:15.681Z,19.11
2022-10-30T09:39:48.171Z,19.39
2022-10-30T09:42:37.953Z,19.49
2022-10-30T09:45:32.892Z,19.32
2022-10-30T09:48:20.497Z,19.31
2022-10-30T09:51:17.547Z,19.04
2022-10-30T09:53:54.497Z,18.72
2022-10-30T09:56:34.911Z,18.43
2022-10-30T09:59:13.647Z,18.98
2022-10-30T10:01:49.196Z,19.04
2022-10-30T10:04:27.258Z,18.77
2022-10-30T10:07:24.352Z,18.71
2022-10-30T10:10:25.168Z,18.35
2022-10-30T10:13:04.905Z,18.56
2022-10-30T10:15:40.784Z,18.55
2022-10-30T10:18:19.244Z,18.82
2022-10-30T10:20:51.501Z,18.91
2022-10-30T10:23:21.585Z,19.48
2022-10-30T10:25:54.086Z,19.83
2022-10-30T10:28:48.290Z,20.39
2022-10-30T10:31:28.542Z,20.23
2022-10-30T10:34:16.155Z,20.44
2022-10-30T10:36:51.534Z,20.80
2022-10-30T10:39:41.054Z,21.13
2022-10-30T10:42:20.599Z,21.18
2022-10-30T10:45:03.383Z,21.22
2022-10-30T10:47:47.441Z,21.02
2022-10-30T10:50:23.371Z,20.92
2022-10-30T10:52:57.822Z,21.49
2022-10-30T10:55:30.034Z,21.82
2022-10-30T10:58:07.166Z,21.89
2022-10-30T11:00:36.773Z,22.36
2022-10-30T11:03:10.601Z,22.50
2022-10-30T11:05:43.060Z,21.68
2022-10-30T11:08:16.400Z,21.89
2022-10-30T11:10:44.507Z,21.91
2022-10-30T11:13:14.812Z,22.52
2022-10-30T11:15:55.080Z,22.55
2022-10-30T11:18:23.251Z,22.01
2022-10-30T11:20:58.871Z,22.38
2022-10-30T11:23:39.953Z,21.39
2022-10-30T11:26:29.475Z,22.38
2022-10-30T11:29:00.167Z,22.65
2022-10-30T11:31:34.884Z,22.37
2022-10-30T11:34:26.879Z,22.65
2022-10-30T11:36:55.796Z,22.90
2022-10-30T11:39:25.618Z,22.90
2022-10-30T11:42:02.227Z,22.16
2022-10-30T11:44:34.859Z,22.95
2022-10-30T11:47:05.893Z,23.15
2022-10-30T11:49:41.504Z,22.49
2022-10-30T11:52:10.558Z,23.96
2022-10-30T11:54:44.815Z,23.88
2022-10-30T11:57:33.673Z,24.00
2022-10-30T12:00:05.299Z,24.84
2022-10-30T12:02:44.457Z,25.34
2022-10-30T12:05:35.565Z,25.93
2022-10-30T12:08:19.018Z,25.94
2022-10-30T12:10:55.058Z,26.54
2022-10-30T12:13:24.729Z,27.80
2022-10-30T12:16:06.992Z,26.88
2022-10-30T12:18:36.845Z,26.21
2022-10-30T12:21:05.595Z,24.57
2022-10-30T12:23:34.878Z,24.53
2022-10-30T12:26:10.615Z,25.12
2022-10-30T12:28:40.043Z,25.31
2022-10-30T12:31:13.575Z,25.32
2022-10-30T12:33:50.060Z,24.51
2022-10-30T12:36:21.787Z,24.48
2022-10-30T12:38:53.745Z,25.10
2022-10-30T12:41:26.454Z,25.98
2022-10-30T12:44:04.072Z,26.38
2022-10-30T12:46:37.395Z,26.06
2022-10-30T12:49:15.836Z,25.55
2022-10-30T12:51:50.090Z,25.90
2022-10-30T12:54:27.237Z,26.43
2022-10-30T12:57:01.710Z,25.43
2022-10-30T12:59:37.318Z,26.08
2022-10-30T13:02:21.981Z,26.05
2022-10-30T13:04:58.148Z,25.90
2022-10-30T13:07:32.724Z,26.61
2022-10-30T13:10:14.210Z,26.81
2022-10-30T13:12:46.267Z,27.35
2022-10-30T13:15:22.363Z,27.58
2022-10-30T13:17:51.770Z,27.83
2022-10-30T13:20:22.671Z,27.86
2022-10-30T13:22:55.704Z,27.57
2022-10-30T13:25:29.828Z,27.26
2022-10-30T13:28:05.342Z,27.25
2022-10-30T13:30:38.767Z,27.04
2022-10-30T13:33:15.391Z,27.07
2022-10-30T13:35:53.177Z,27.20
2022-10-30T13:38:38.269Z,27.25
2022-10-30T13:41:16.550Z,26.41
2022-10-30T13:43:54.078Z,26.60
2022-10-30T13:46:32.553Z,25.75
2022-10-30T13:49:15.647Z,26.09
2022-10-30T13:51:50.043Z,25.85
2022-10-30T13:54:21.846Z,25.33
2022-10-30T13:56:51.962Z,25.71
2022-10-30T13:59:45.337Z,25.44
2022-10-30T14:02:25.914Z,26.12
2022-10-30T14:05:01.743Z,26.17
2022-10-30T14:07:40.156Z,26.96
2022-10-30T14:10:12.714Z,27.13
2022-10-30T14:13:12.442Z,26.90
2022-10-30T14:15:44.192Z,27.10
2022-10-30T14:18:30.909Z,27.12
2022-10-30T14:21:00.253Z,27.15
2022-10-30T14:23:35.084Z,27.06
2022-10-30T14:26:23.019Z,26.86
2022-10-30T14:28:53.796Z,26.23
2022-10-30T14:31:35.201Z,26.15
2022-10-30T14:34:03.458Z,25.41
2022-10-30T14:36:50.080Z,25.35
2022-10-30T14:39:32.136Z,25.37
2022-10-30T14:42:15.698Z,25.41
2022-10-30T14:45:08.748Z,25.42
2022-10-30T14:47:58.552Z,25.78
2022-10-30T14:50:38.421Z,26.23
2022-10-30T14:53:35.369Z,26.47
2022-10-30T14:56:11.889Z,26.48
2022-10-30T14:58:40.275Z,26.35
2022-10-30T15:01:34.520Z,25.30
2022-10-30T15:04:17.746Z,25.37
2022-10-30T15:06:57.343Z,25.35
2022-10-30T15:09:40.344Z,25.64
2022-10-30T15:12:47.102Z,24.70
2022-10-30T15:15:18.598Z,25.05
2022-10-30T15:17:49.209Z,24.84
2022-10-30T15:20:20.093Z,25.03
2022-10-30T15:22:50.759Z,25.16
2022-10-30T15:25:21.586Z,25.39
2022-10-30T15:27:54.278Z,25.42
2022-10-30T15:30:25.424Z,25.45
2022-10-30T15:32:54.058Z,25.27
2022-10-30T15:35:23.665Z,25.22
2022-10-30T15:38:01.791Z,25.01
2022-10-30T15:40:30.844Z,24.98
2022-10-30T15:43:02.974Z,24.91
2022-10-30T15:45:35.523Z,24.87
2022-10-30T15:48:09.658Z,24.79
2022-10-30T15:50:47.115Z,24.74
2022-10-30T15:53:20.529Z,24.88
2022-10-30T15:55:50.066Z,24.87
2022-10-30T15:58:23.859Z,24.72
2022-10-30T16:01:00.628Z,24.19
2022-10-30T16:03:29.472Z,23.95
2022-10-30T16:06:08.352Z,23.66
2022-10-30T16:08:45.039Z,23.25
2022-10-30T16:11:13.412Z,23.34
2022-10-30T16:13:43.622Z,22.93
2022-10-30T16:16:17.980Z,22.82
2022-10-30T16:18:46.106Z,22.46
2022-10-30T16:21:18.690Z,22.45
2022-10-30T16:23:51.975Z,21.86
2022-10-30T16:26:29.930Z,22.25
2022-10-30T16:29:02.136Z,22.21
2022-10-30T16:31:35.373Z,21.66
2022-10-30T16:34:05.725Z,21.45
2022-10-30T16:36:34.528Z,21.81
2022-10-30T16:39:03.364Z,21.33
2022-10-30T16:41:32.786Z,21.44
2022-10-30T16:44:18.841Z,21.95
2022-10-30T16:46:57.780Z,21.82
2022-10-30T16:49:28.555Z,22.32
2022-10-30T16:52:01.696Z,22.45
2022-10-30T16:54:33.778Z,22.60
2022-10-30T16:57:04.017Z,22.52
2022-10-30T16:59:37.152Z,22.49
2022-10-30T17:02:16.579Z,22.59
2022-10-30T17:04:51.261Z,22.58
2022-10-30T17:07:25.238Z,22.47
2022-10-30T17:09:58.642Z,22.53
2022-10-30T17:12:28.959Z,22.44
2022-10-30T17:15:12.743Z,22.27
2022-10-30T17:17:42.025Z,22.36
2022-10-30T17:20:28.243Z,21.89
2022-10-30T17:23:07.740Z,21.79
2022-10-30T17:25:38.311Z,21.72
2022-10-30T17:28:07.165Z,21.36
2022-10-30T17:30:41.255Z,21.28
2022-10-30T17:33:28.220Z,21.39
2022-10-30T17:35:56.245Z,21.22
2022-10-30T17:38:24.261Z,21.12
2022-10-30T17:40:52.273Z,20.82
2022-10-30T17:43:20.339Z,20.88
2022-10-30T17:45:49.705Z,21.47
2022-10-30T17:48:19.299Z,21.43
2022-10-30T17:50:47.275Z,21.62
2022-10-30T17:53:18.486Z,20.97
2022-10-30T17:55:51.666Z,21.61
2022-10-30T18:00:51.709Z,21.36
2022-10-30T18:03:19.704Z,21.99
2022-10-30T18:05:48.712Z,22.16
2022-10-30T18:08:16.684Z,22.18
2022-10-30T18:10:44.733Z,21.92
2022-10-30T18:13:13.709Z,21.83
2022-10-30T18:15:44.120Z,21.56
2022-10-30T18:18:13.602Z,21.73
2022-10-30T18:20:41.660Z,21.54
2022-10-30T18:23:46.777Z,21.50
2022-10-30T18:26:08.655Z,21.66
2022-10-30T18:28:36.624Z,21.74
2022-10-30T18:31:04.671Z,21.72
2022-10-30T18:33:34.021Z,21.68
2022-10-30T18:36:02.176Z,21.64
2022-10-30T18:38:30.222Z,21.59
2022-10-30T18:40:59.575Z,21.54
2022-10-30T18:43:28.899Z,21.49
2022-10-30T18:45:56.892Z,21.41
2022-10-30T18:48:24.873Z,21.36
2022-10-30T18:50:54.244Z,21.31
2022-10-30T18:53:22.172Z,21.27
2022-10-30T18:55:50.134Z,21.23
2022-10-30T18:58:18.082Z,21.19
2022-10-30T19:01:10.648Z,21.17
2022-10-30T19:03:34.018Z,21.13
2022-10-30T19:06:03.376Z,21.08
2022-10-30T19:08:31.376Z,21.05
2022-10-30T19:10:59.705Z,21.08
2022-10-30T19:13:27.753Z,20.95
2022-10-30T19:16:00.453Z,20.80
2022-10-30T19:18:31.253Z,20.80
2022-10-30T19:21:09.132Z,20.78
2022-10-30T19:23:42.396Z,20.73
2022-10-30T19:28:40.414Z,20.64
2022-10-30T19:31:09.011Z,20.61
2022-10-30T19:33:36.970Z,20.57
2022-10-30T19:36:06.175Z,20.51
2022-10-30T19:38:34.901Z,20.47
2022-10-30T19:41:05.183Z,20.41
2022-10-30T19:43:33.273Z,20.36
2022-10-30T19:46:01.590Z,20.33
2022-10-30T19:48:56.022Z,20.29
2022-10-30T19:51:17.617Z,20.13
2022-10-30T19:53:45.619Z,19.97
2022-10-30T19:56:16.451Z,20.06
2022-10-30T19:58:44.422Z,19.56
2022-10-30T20:01:14.107Z,19.47
2022-10-30T20:03:42.345Z,19.42
2022-10-30T20:06:12.000Z,19.36
2022-10-30T20:08:40.300Z,18.85
2022-10-30T20:11:08.857Z,18.40
2022-10-30T20:13:38.235Z,18.79
2022-10-30T20:16:07.190Z,18.69
2022-10-30T20:18:36.877Z,18.86
2022-10-30T20:21:08.419Z,18.73
2022-10-30T20:23:37.139Z,18.80
2022-10-30T20:26:08.358Z,18.74
2022-10-30T20:28:39.757Z,18.67
2022-10-30T20:31:09.059Z,18.73
2022-10-30T20:33:37.015Z,18.65
2022-10-30T20:36:05.752Z,18.52
2022-10-30T20:38:35.299Z,18.48
2022-10-30T20:41:04.695Z,18.27
2022-10-30T20:43:34.879Z,18.18
2022-10-30T20:46:05.930Z,18.08
2022-10-30T20:48:34.133Z,17.87
2022-10-30T20:51:02.995Z,17.89
2022-10-30T20:53:31.329Z,18.04
2022-10-30T20:55:59.323Z,18.15
2022-10-30T20:58:27.526Z,18.04
2022-10-30T21:00:56.421Z,18.27
2022-10-30T21:03:26.300Z,17.89
2022-10-30T21:05:57.328Z,18.01
2022-10-30T21:08:25.506Z,18.28
2022-10-30T21:10:53.522Z,18.50
2022-10-30T21:13:21.542Z,18.89
2022-10-30T21:15:51.487Z,18.94
2022-10-30T21:18:19.480Z,18.87
2022-10-30T21:20:48.975Z,19.13
2022-10-30T21:23:16.955Z,18.81
2022-10-30T21:25:44.958Z,18.49
2022-10-30T21:28:12.992Z,17.94
2022-10-30T21:30:41.097Z,17.71
2022-10-30T21:33:09.020Z,18.04
2022-10-30T21:35:37.044Z,18.34
2022-10-30T21:38:06.403Z,18.28
2022-10-30T21:40:34.379Z,18.32
2022-10-30T21:43:04.367Z,18.25
2022-10-30T21:45:33.030Z,18.33
2022-10-30T21:48:00.967Z,18.54
2022-10-30T21:50:28.941Z,18.41
2022-10-30T21:52:57.141Z,18.33
2022-10-30T21:55:26.585Z,18.67
2022-10-30T21:57:55.055Z,18.85
2022-10-30T22:00:23.148Z,19.06
2022-10-30T22:02:52.038Z,19.05
2022-10-30T22:05:19.948Z,19.07
2022-10-30T22:07:47.933Z,18.99
2022-10-30T22:10:15.988Z,18.82
2022-10-30T22:12:45.329Z,18.72
2022-10-30T22:15:13.320Z,18.35
2022-10-30T22:17:41.297Z,18.19
2022-10-30T22:20:11.220Z,18.38
2022-10-30T22:22:39.191Z,18.31
2022-10-30T22:25:07.502Z,17.79
2022-10-30T22:27:35.543Z,17.62
2022-10-30T22:30:05.440Z,17.78
2022-10-30T22:32:33.483Z,17.69
2022-10-30T22:35:02.240Z,17.23
2022-10-30T22:37:30.232Z,17.55
2022-10-30T22:39:58.162Z,16.71
2022-10-30T22:42:26.206Z,17.15
2022-10-30T22:44:54.768Z,17.10
2022-10-30T22:47:24.090Z,16.46
2022-10-30T22:49:52.063Z,16.57
2022-10-30T22:52:19.998Z,16.93
2022-10-30T22:54:47.977Z,16.37
2022-10-30T22:57:15.961Z,16.82
2022-10-30T22:59:43.904Z,16.95
2022-10-30T23:02:11.887Z,16.97
2022-10-30T23:04:41.304Z,16.93
2022-10-30T23:07:09.278Z,16.99
2022-10-30T23:09:37.282Z,17.42
2022-10-30T23:12:05.914Z,17.10
2022-10-30T23:14:33.965Z,17.44
2022-10-30T23:17:01.982Z,17.64
2022-10-30T23:19:30.412Z,17.27
2022-10-30T23:22:00.183Z,17.52
2022-10-30T23:24:28.389Z,17.77
2022-10-30T23:26:56.347Z,17.79
2022-10-30T23:29:24.324Z,17.86
2022-10-30T23:31:52.236Z,17.53
2022-10-30T23:34:20.183Z,17.56
2022-10-30T23:36:48.093Z,17.55
2022-10-30T23:39:19.029Z,17.52
2022-10-30T23:41:47.210Z,17.48
2022-10-30T23:44:16.938Z,17.21
2022-10-30T23:46:44.968Z,17.15
2022-10-30T23:49:12.935Z,17.19
2022-10-30T23:51:40.892Z,17.32
2022-10-30T23:54:08.952Z,17.28
2022-10-30T23:56:38.220Z,17.23
2022-10-30T23:59:06.180Z,17.25
